createdAt,value
2019-04-13T00:03:53.554Z,10.90
2019-04-13T00:06:38.622Z,10.94
2019-04-13T00:09:23.387Z,10.84
2019-04-13T00:15:18.470Z,10.88
2019-04-13T00:18:10.015Z,10.74
2019-04-13T00:20:53.006Z,10.78
2019-04-13T00:23:29.956Z,10.73
2019-04-13T00:26:15.664Z,10.64
2019-04-13T00:29:02.293Z,10.70
2019-04-13T00:31:45.929Z,10.77
2019-04-13T00:34:23.405Z,10.66
2019-04-13T00:37:19.930Z,10.69
2019-04-13T00:40:12.392Z,10.69
2019-04-13T00:43:19.290Z,10.72
2019-04-13T00:46:01.206Z,10.59
2019-04-13T00:48:50.549Z,10.69
2019-04-13T00:54:31.335Z,10.58
2019-04-13T00:57:11.516Z,10.61
2019-04-13T00:59:58.734Z,10.66
2019-04-13T01:02:52.130Z,10.61
2019-04-13T01:08:42.636Z,10.62
2019-04-13T01:11:24.777Z,10.61
2019-04-13T01:14:06.428Z,10.65
2019-04-13T01:16:44.477Z,10.64
2019-04-13T01:19:25.999Z,10.53
2019-04-13T01:22:09.243Z,10.61
2019-04-13T01:24:50.402Z,10.54
2019-04-13T01:27:41.804Z,10.55
2019-04-13T01:30:18.936Z,10.51
2019-04-13T01:33:01.987Z,10.60
2019-04-13T01:35:43.452Z,10.64
2019-04-13T01:38:38.801Z,10.63
2019-04-13T01:41:37.595Z,10.57
2019-04-13T01:44:31.540Z,10.53
2019-04-13T01:47:17.603Z,10.50
2019-04-13T01:50:00.164Z,10.40
2019-04-13T01:52:49.752Z,10.43
2019-04-13T01:55:40.025Z,10.39
2019-04-13T01:58:30.844Z,10.44
2019-04-13T02:01:31.401Z,10.40
2019-04-13T02:04:41.464Z,10.57
2019-04-13T02:07:30.250Z,10.46
2019-04-13T02:10:31.407Z,10.45
2019-04-13T02:13:13.786Z,10.47
2019-04-13T02:16:06.323Z,10.59
2019-04-13T02:18:43.923Z,10.50
2019-04-13T02:21:22.701Z,10.40
2019-04-13T02:24:03.913Z,10.51
2019-04-13T02:26:42.546Z,10.42
2019-04-13T02:29:25.379Z,10.36
2019-04-13T02:32:04.928Z,10.40
2019-04-13T02:35:05.743Z,10.50
2019-04-13T02:37:57.737Z,10.28
2019-04-13T02:40:45.201Z,10.34
2019-04-13T02:43:23.521Z,10.27
2019-04-13T02:46:04.517Z,10.39
2019-04-13T02:51:46.084Z,10.40
2019-04-13T02:54:42.208Z,10.34
2019-04-13T02:57:18.699Z,10.34
2019-04-13T03:00:03.936Z,10.33
2019-04-13T03:02:47.619Z,10.26
2019-04-13T03:05:32.857Z,10.34
2019-04-13T03:08:12.347Z,10.37
2019-04-13T03:11:04.973Z,10.29
2019-04-13T03:13:47.711Z,10.32
2019-04-13T03:16:38.236Z,10.33
2019-04-13T03:19:44.261Z,10.47
2019-04-13T03:22:23.752Z,10.46
2019-04-13T03:25:05.561Z,10.52
2019-04-13T03:27:52.708Z,10.45
2019-04-13T03:30:42.715Z,10.42
2019-04-13T03:33:29.150Z,10.52
2019-04-13T03:36:28.413Z,10.46
2019-04-13T03:39:14.340Z,10.35
2019-04-13T03:42:03.939Z,10.47
2019-04-13T03:44:45.518Z,10.30
2019-04-13T03:47:28.363Z,10.32
2019-04-13T03:50:29.763Z,10.33
2019-04-13T03:53:35.029Z,10.35
2019-04-13T03:56:23.556Z,10.26
2019-04-13T03:59:18.631Z,10.34
2019-04-13T04:01:50.930Z,10.31
2019-04-13T04:04:42.882Z,10.14
2019-04-13T04:07:35.651Z,10.19
2019-04-13T04:10:18.447Z,10.16
2019-04-13T04:13:04.584Z,10.31
2019-04-13T04:15:39.395Z,10.29
2019-04-13T04:18:14.695Z,10.15
2019-04-13T04:21:06.636Z,10.18
2019-04-13T04:23:51.268Z,10.23
2019-04-13T04:26:27.436Z,10.32
2019-04-13T04:29:22.620Z,10.24
2019-04-13T04:32:11.790Z,10.24
2019-04-13T04:34:54.917Z,10.31
2019-04-13T04:37:28.248Z,10.19
2019-04-13T04:40:09.390Z,10.25
2019-04-13T04:42:49.994Z,10.23
2019-04-13T04:45:31.491Z,10.23
2019-04-13T04:48:28.944Z,10.29
2019-04-13T04:51:11.572Z,10.33
2019-04-13T04:53:51.162Z,10.38
2019-04-13T04:56:43.726Z,10.40
2019-04-13T04:59:58.436Z,10.43
2019-04-13T05:02:36.502Z,10.38
2019-04-13T05:05:32.250Z,10.29
2019-04-13T05:08:16.444Z,10.45
2019-04-13T05:10:55.697Z,10.35
2019-04-13T05:13:49.364Z,10.35
2019-04-13T05:16:51.079Z,10.28
2019-04-13T05:19:32.595Z,10.37
2019-04-13T05:22:26.059Z,10.36
2019-04-13T05:25:00.131Z,10.42
2019-04-13T05:27:51.025Z,10.40
2019-04-13T05:30:26.259Z,10.40
2019-04-13T05:33:10.564Z,10.42
2019-04-13T05:36:19.298Z,10.58
2019-04-13T05:39:24.236Z,10.54
2019-04-13T05:42:09.936Z,10.61
2019-04-13T05:45:04.835Z,10.56
2019-04-13T05:47:58.651Z,10.63
2019-04-13T05:50:53.857Z,10.69
2019-04-13T05:53:35.524Z,10.63
2019-04-13T05:56:18.974Z,10.60
2019-04-13T05:59:05.786Z,10.89
2019-04-13T06:02:07.367Z,11.01
2019-04-13T06:05:01.847Z,11.04
2019-04-13T06:08:06.632Z,11.06
2019-04-13T06:10:59.417Z,11.17
2019-04-13T06:14:25.732Z,11.28
2019-04-13T06:17:22.136Z,11.21
2019-04-13T06:20:10.368Z,11.44
2019-04-13T06:22:58.411Z,11.38
2019-04-13T06:28:53.929Z,11.29
2019-04-13T06:32:01.701Z,11.42
2019-04-13T06:35:09.256Z,11.39
2019-04-13T06:37:48.456Z,11.43
2019-04-13T06:40:51.301Z,11.35
2019-04-13T06:43:31.019Z,11.47
2019-04-13T06:46:16.892Z,11.42
2019-04-13T06:49:19.699Z,11.52
2019-04-13T06:52:19.787Z,11.64
2019-04-13T06:55:16.064Z,11.87
2019-04-13T06:58:13.150Z,12.25
2019-04-13T07:01:04.840Z,12.35
2019-04-13T07:03:56.969Z,12.44
2019-04-13T07:06:56.632Z,12.73
2019-04-13T07:09:52.203Z,12.95
2019-04-13T07:13:02.051Z,13.21
2019-04-13T07:15:47.217Z,13.44
2019-04-13T07:18:28.956Z,13.77
2019-04-13T07:21:20.770Z,13.90
2019-04-13T07:23:57.917Z,14.09
2019-04-13T07:30:35.415Z,13.99
2019-04-13T07:33:17.897Z,14.04
2019-04-13T07:36:18.285Z,13.98
2019-04-13T07:39:29.206Z,13.96
2019-04-13T07:42:12.956Z,13.96
2019-04-13T07:45:40.182Z,14.03
2019-04-13T07:49:05.223Z,14.12
2019-04-13T07:52:23.314Z,14.34
2019-04-13T07:55:01.773Z,14.33
2019-04-13T07:57:44.751Z,14.47
2019-04-13T08:00:30.466Z,14.51
2019-04-13T08:03:07.663Z,14.45
2019-04-13T08:05:43.931Z,14.47
2019-04-13T08:08:24.879Z,14.34
2019-04-13T08:11:22.727Z,14.31
2019-04-13T08:14:24.261Z,14.20
2019-04-13T08:17:15.393Z,14.32
2019-04-13T08:20:09.378Z,14.34
2019-04-13T08:23:08.400Z,14.26
2019-04-13T08:25:49.474Z,14.53
2019-04-13T08:28:39.702Z,14.40
2019-04-13T08:31:15.387Z,14.61
2019-04-13T08:34:04.284Z,14.79
2019-04-13T08:36:45.033Z,14.84
2019-04-13T08:39:26.773Z,14.89
2019-04-13T08:42:18.736Z,14.93
2019-04-13T08:44:46.997Z,15.31
2019-04-13T08:47:33.308Z,15.41
2019-04-13T08:50:18.415Z,15.85
2019-04-13T08:53:08.794Z,15.96
2019-04-13T08:55:53.136Z,15.99
2019-04-13T08:58:36.523Z,15.82
2019-04-13T09:01:16.136Z,15.75
2019-04-13T09:03:54.248Z,16.09
2019-04-13T09:09:41.071Z,16.17
2019-04-13T09:12:25.041Z,16.16
2019-04-13T09:15:06.261Z,16.16
2019-04-13T09:21:23.224Z,16.40
2019-04-13T09:24:03.108Z,16.52
2019-04-13T09:26:41.431Z,16.36
2019-04-13T09:29:26.392Z,16.27
2019-04-13T09:32:10.070Z,16.36
2019-04-13T09:34:53.426Z,16.71
2019-04-13T09:37:37.575Z,16.60
2019-04-13T09:40:36.071Z,16.48
2019-04-13T09:43:39.864Z,16.49
2019-04-13T09:46:23.204Z,16.46
2019-04-13T09:49:06.418Z,16.51
2019-04-13T09:51:47.489Z,16.99
2019-04-13T09:54:27.322Z,17.22
2019-04-13T09:57:10.596Z,16.87
2019-04-13T10:00:05.241Z,16.64
2019-04-13T10:05:45.284Z,17.26
2019-04-13T10:08:26.860Z,17.51
2019-04-13T10:11:06.755Z,17.94
2019-04-13T10:14:07.013Z,18.39
2019-04-13T10:17:06.733Z,18.80
2019-04-13T10:19:59.937Z,18.70
2019-04-13T10:22:42.485Z,18.27
2019-04-13T10:25:38.134Z,18.22
2019-04-13T10:28:26.386Z,18.09
2019-04-13T10:31:09.656Z,18.16
2019-04-13T10:33:51.531Z,18.29
2019-04-13T10:36:34.629Z,17.77
2019-04-13T10:39:22.024Z,17.37
2019-04-13T10:42:25.094Z,17.11
2019-04-13T10:48:35.664Z,17.22
2019-04-13T10:51:47.285Z,17.27
2019-04-13T10:54:27.295Z,17.22
2019-04-13T10:57:07.342Z,17.22
2019-04-13T11:00:06.524Z,17.45
2019-04-13T11:05:48.020Z,18.46
2019-04-13T11:08:51.437Z,18.21
2019-04-13T11:21:26.035Z,18.70
2019-04-13T11:24:55.958Z,18.78
2019-04-13T11:34:30.977Z,18.45
2019-04-13T11:44:21.217Z,20.05
2019-04-13T11:47:30.818Z,19.85
2019-04-13T11:53:56.315Z,19.97
2019-04-13T12:00:58.520Z,19.15
2019-04-13T12:03:59.047Z,19.31
2019-04-13T12:09:51.125Z,18.29
2019-04-13T12:13:02.598Z,18.23
2019-04-13T12:16:36.441Z,17.99
2019-04-13T12:22:30.280Z,17.91
2019-04-13T12:25:45.620Z,17.81
2019-04-13T12:28:48.730Z,18.10
2019-04-13T12:38:09.457Z,18.89
2019-04-13T12:41:06.498Z,19.05
2019-04-13T12:43:48.365Z,19.06
2019-04-13T12:52:55.915Z,20.54
2019-04-13T12:56:33.084Z,20.19
2019-04-13T12:59:15.008Z,20.08
2019-04-13T13:02:49.330Z,19.93
2019-04-13T13:05:41.279Z,19.69
2019-04-13T13:08:53.424Z,19.72
2019-04-13T13:11:56.933Z,19.82
2019-04-13T13:18:08.723Z,18.96
2019-04-13T13:24:30.878Z,19.19
2019-04-13T13:27:27.390Z,19.05
2019-04-13T13:30:29.237Z,19.30
2019-04-13T13:40:30.448Z,19.09
2019-04-13T13:50:06.546Z,19.18
2019-04-13T13:53:10.617Z,19.51
2019-04-13T13:56:08.933Z,19.05
2019-04-13T14:05:34.939Z,19.70
2019-04-13T14:08:44.294Z,20.00
2019-04-13T14:11:50.624Z,20.67
2019-04-13T14:14:59.848Z,20.95
2019-04-13T14:17:31.608Z,21.04
2019-04-13T14:20:14.575Z,20.83
2019-04-13T14:26:20.194Z,20.35
2019-04-13T14:29:10.753Z,20.51
2019-04-13T14:32:40.328Z,20.40
2019-04-13T14:47:45.033Z,18.90
2019-04-13T14:53:52.227Z,18.61
2019-04-13T14:56:55.751Z,18.54
2019-04-13T15:06:13.522Z,18.30
2019-04-13T15:09:06.201Z,18.32
2019-04-13T15:18:23.835Z,18.24
2019-04-13T15:24:32.760Z,17.75
2019-04-13T15:27:38.744Z,17.49
2019-04-13T15:31:01.562Z,17.15
2019-04-13T15:47:19.194Z,17.44
2019-04-13T15:50:01.727Z,17.38
2019-04-13T15:53:09.786Z,17.33
2019-04-13T15:56:13.072Z,17.32
2019-04-13T15:59:28.773Z,17.13
2019-04-13T16:09:07.767Z,17.13
2019-04-13T16:12:13.232Z,17.03
2019-04-13T16:14:53.324Z,16.99
2019-04-13T16:17:56.319Z,17.13
2019-04-13T16:21:08.535Z,17.26
2019-04-13T16:24:05.463Z,17.42
2019-04-13T16:33:08.675Z,17.57
2019-04-13T16:39:23.091Z,17.18
2019-04-13T16:42:27.823Z,17.28
2019-04-13T16:45:38.439Z,17.25
2019-04-13T16:48:34.113Z,17.18
2019-04-13T16:51:46.307Z,17.24
2019-04-13T16:58:25.796Z,17.22
2019-04-13T17:01:18.972Z,17.07
2019-04-13T17:04:38.009Z,16.77
2019-04-13T17:07:23.989Z,16.39
2019-04-13T17:10:36.403Z,16.04
2019-04-13T17:22:54.936Z,15.48
2019-04-13T17:31:57.782Z,14.95
2019-04-13T17:45:00.629Z,14.17
2019-04-13T17:51:33.078Z,13.88
2019-04-13T17:54:28.819Z,13.70
2019-04-13T17:57:56.523Z,13.61
2019-04-13T18:00:50.266Z,13.51
2019-04-13T18:07:21.558Z,13.16
2019-04-13T18:17:22.591Z,12.85
2019-04-13T18:29:55.159Z,12.37
2019-04-13T18:35:49.068Z,12.25
2019-04-13T18:38:43.979Z,12.21
2019-04-13T18:42:10.338Z,12.14
2019-04-13T18:45:09.316Z,12.06
2019-04-13T19:04:23.642Z,11.80
2019-04-13T19:07:32.287Z,11.96
2019-04-13T19:10:48.819Z,11.90
2019-04-13T19:33:08.548Z,11.89
2019-04-13T19:42:28.799Z,11.93
2019-04-13T19:45:31.562Z,11.91
2019-04-13T19:52:05.546Z,12.07
2019-04-13T19:55:12.969Z,12.04
2019-04-13T20:10:55.018Z,12.23
2019-04-13T20:20:49.808Z,12.15
2019-04-13T20:24:25.776Z,12.23
2019-04-13T20:27:15.121Z,12.20
2019-04-13T20:30:19.471Z,12.24
2019-04-13T20:33:41.837Z,12.26
2019-04-13T20:37:05.761Z,12.35
2019-04-13T20:40:05.838Z,12.62
2019-04-13T20:43:16.467Z,12.62
2019-04-13T20:49:17.171Z,12.57
2019-04-13T20:52:50.811Z,12.68
2019-04-13T20:58:23.150Z,12.72
2019-04-13T21:00:57.381Z,12.75
2019-04-13T21:13:42.585Z,12.10
2019-04-13T21:16:53.933Z,11.86
2019-04-13T21:19:41.853Z,11.89
2019-04-13T21:32:22.434Z,11.21
2019-04-13T21:38:30.414Z,11.03
2019-04-13T21:44:51.512Z,10.46
2019-04-13T21:47:40.975Z,10.46
2019-04-13T21:50:47.959Z,10.44
2019-04-13T21:53:57.429Z,10.32
2019-04-13T21:56:32.388Z,10.07
2019-04-13T21:59:15.156Z,10.07
2019-04-13T22:02:37.635Z,10.02
2019-04-13T22:15:22.157Z,10.10
2019-04-13T22:21:17.663Z,10.07
2019-04-13T22:24:20.313Z,10.11
2019-04-13T22:27:48.342Z,10.12
2019-04-13T22:40:11.263Z,10.33
2019-04-13T22:52:53.710Z,10.17
2019-04-13T22:56:05.099Z,10.16
2019-04-13T23:01:55.241Z,10.38
2019-04-13T23:08:12.219Z,10.34
2019-04-13T23:20:17.017Z,10.20
2019-04-13T23:26:32.376Z,10.16
2019-04-13T23:44:42.055Z,10.35
2019-04-13T23:48:22.025Z,10.35
2019-04-13T23:51:25.265Z,10.49
2019-04-13T23:53:58.007Z,10.38
